Time;durP1;ratioP1;P1;durP2;ratioP2;P2;SDS_P1;SDS_P2;PMS_P1;PMS_P2;Temp;Humidity;BMP_temperature;BMP_pressure;BME280_temperature;BME280_humidity;BME280_pressure;Samples;Min_cycle;Max_cycle;Signal;HPM_P1;HPM_P2
2023/12/22 00:00:24;;;;;;;2.38;1.70;;;10.30;1.00;;;8.94;100.00;99329.38;4992107;28;20831;-80
2023/12/22 00:02:51;;;;;;;3.85;1.30;;;11.00;99.90;;;8.91;100.00;99333.88;4954409;28;20048;-78
2023/12/22 00:05:19;;;;;;;2.75;1.35;;;10.20;99.90;;;8.84;100.00;99355.97;4966061;28;20112;-79
2023/12/22 00:07:46;;;;;;;4.15;1.55;;;10.10;1.00;;;8.75;100.00;99326.50;4962551;28;20061;-79
2023/12/22 00:10:13;;;;;;;2.55;1.30;;;10.10;70.00;;;8.77;100.00;99335.19;4969859;28;20042;-78
2023/12/22 00:12:40;;;;;;;3.53;1.67;;;10.00;99.90;;;8.76;100.00;99315.09;4971261;28;20151;-78
2023/12/22 00:15:07;;;;;;;2.75;1.35;;;10.10;1.00;;;8.68;100.00;99298.78;4979274;28;20069;-78
2023/12/22 00:17:35;;;;;;;3.15;1.30;;;10.10;1.00;;;8.68;100.00;99311.03;4975170;28;20049;-78
2023/12/22 00:20:03;;;;;;;6.15;1.77;;;10.00;14.00;;;8.66;100.00;99316.31;4961351;28;20137;-78
2023/12/22 00:22:30;;;;;;;3.53;1.75;;;10.00;1.00;;;8.68;100.00;99338.13;4975774;28;20038;-78
2023/12/22 00:24:58;;;;;;;2.97;1.42;;;10.40;99.90;;;8.68;100.00;99355.59;4993012;28;20066;-79
2023/12/22 00:27:26;;;;;;;2.67;1.33;;;9.90;1.00;;;8.55;100.00;99340.25;4961589;28;20460;-79
2023/12/22 00:29:53;;;;;;;1.95;1.40;;;9.90;27.80;;;8.48;100.00;99343.97;4977262;28;20099;-78
2023/12/22 00:32:20;;;;;;;3.42;1.65;;;9.80;89.90;;;8.42;100.00;99329.28;4983998;28;20046;-78
2023/12/22 00:34:49;;;;;;;3.15;1.30;;;9.80;99.90;;;8.39;100.00;99318.91;4991627;28;20105;-78
2023/12/22 00:37:16;;;;;;;1.85;1.15;;;9.80;99.90;;;8.51;100.00;99343.91;4983274;28;20496;-79
2023/12/22 00:39:43;;;;;;;3.72;1.50;;;9.80;99.90;;;8.40;100.00;99317.13;4976084;28;20608;-78
2023/12/22 00:42:10;;;;;;;2.40;1.40;;;9.80;99.90;;;8.49;100.00;99354.38;5008201;28;20050;-79
2023/12/22 00:44:39;;;;;;;2.85;1.40;;;9.70;99.90;;;8.39;100.00;99334.63;4968282;28;20066;-77
2023/12/22 00:47:06;;;;;;;2.78;1.45;;;9.70;99.90;;;8.36;100.00;99326.88;4992249;28;20172;-78
2023/12/22 00:49:33;;;;;;;4.85;2.45;;;9.70;99.90;;;8.32;100.00;99309.50;4976787;28;20084;-78
2023/12/22 00:52:00;;;;;;;4.82;1.60;;;9.60;89.00;;;8.32;100.00;99299.03;4963527;28;20058;-79
2023/12/22 00:54:30;;;;;;;5.18;1.65;;;9.60;99.90;;;8.26;100.00;99292.22;4988039;28;20050;-77
2023/12/22 00:56:57;;;;;;;2.83;1.50;;;9.60;99.90;;;8.27;100.00;99282.59;4995603;28;20034;-79
2023/12/22 00:59:25;;;;;;;2.20;1.40;;;9.60;99.90;;;8.19;100.00;99273.22;4979928;28;20080;-79
2023/12/22 01:01:54;;;;;;;2.75;1.58;;;9.60;28.60;;;8.27;100.00;99309.66;4996231;28;20061;-78
2023/12/22 01:04:24;;;;;;;2.33;1.52;;;9.60;99.90;;;8.38;100.00;99309.34;4979736;28;20108;-79
2023/12/22 01:06:52;;;;;;;4.10;1.88;;;9.60;99.90;;;8.26;100.00;99286.13;4995240;28;20077;-79
2023/12/22 01:09:20;;;;;;;1.67;1.30;;;9.60;99.90;;;8.22;100.00;99273.13;4994853;28;20445;-79
2023/12/22 01:11:47;;;;;;;4.10;1.95;;;9.60;99.90;;;8.19;100.00;99275.81;4978250;28;20045;-78
2023/12/22 01:14:14;;;;;;;2.30;1.58;;;9.60;99.90;;;8.22;100.00;99283.63;4995167;28;20049;-79
2023/12/22 01:16:41;;;;;;;1.88;1.40;;;9.60;1.00;;;7.99;100.00;99270.38;4979545;28;20141;-79
2023/12/22 01:19:08;;;;;;;4.05;2.17;;;9.90;99.90;;;8.31;100.00;99299.94;4978487;28;20049;-79
2023/12/22 01:21:36;;;;;;;6.80;1.98;;;9.60;99.90;;;7.92;100.00;99244.38;4977373;28;20046;-79
2023/12/22 01:24:06;;;;;;;8.82;3.60;;;9.50;99.90;;;7.92;100.00;99253.97;4993340;28;20096;-79
2023/12/22 01:26:33;;;;;;;9.20;2.33;;;9.50;1.00;;;8.26;100.00;99294.84;4976279;28;20054;-78
2023/12/22 01:28:59;;;;;;;6.35;2.20;;;9.70;99.90;;;7.98;100.00;99242.47;4957679;28;20471;-79
2023/12/22 01:31:27;;;;;;;4.35;1.90;;;9.70;99.90;;;8.38;100.00;99301.47;4993218;28;20049;-79
2023/12/22 01:33:54;;;;;;;6.97;2.00;;;9.80;1.00;;;8.56;100.00;99289.53;4970913;28;20081;-79
2023/12/22 01:36:21;;;;;;;5.53;1.70;;;9.80;89.00;;;8.67;100.00;99304.94;4973882;28;20041;-79
2023/12/22 01:38:48;;;;;;;4.10;2.20;;;9.90;1.00;;;8.73;100.00;99311.72;4976178;28;20508;-78
2023/12/22 01:41:15;;;;;;;5.80;1.88;;;9.90;1.00;;;8.71;100.00;99314.41;4976285;28;20156;-79
2023/12/22 01:43:42;;;;;;;4.22;1.88;;;9.90;1.00;;;8.64;100.00;99302.41;4972813;28;20576;-79
2023/12/22 01:46:13;;;;;;;6.35;2.40;;;9.90;99.90;;;8.67;100.00;99318.06;4992198;28;20264;-78
2023/12/22 01:48:40;;;;;;;;;;;9.90;1.00;;;8.80;100.00;99337.69;4968380;28;20397;-78
2023/12/22 01:51:07;;;;;;;5.28;2.28;;;9.90;99.90;;;8.76;100.00;99335.25;4991777;28;19925;-79
2023/12/22 01:53:35;;;;;;;7.20;2.30;;;9.90;99.90;;;8.69;100.00;99311.00;4975586;28;20050;-78
2023/12/22 01:56:06;;;;;;;5.18;2.00;;;9.90;99.90;;;8.86;100.00;99327.94;4960657;28;20463;-78
2023/12/22 01:58:36;;;;;;;3.55;1.85;;;10.60;99.50;;;8.62;100.00;99288.47;4967696;28;20526;-79
2023/12/22 02:01:13;;;;;;;5.18;2.17;;;10.00;1.00;;;8.73;100.00;99311.72;4960199;28;20077;-79
2023/12/22 02:03:41;;;;;;;6.80;2.05;;;10.00;1.00;;;8.87;100.00;99348.00;4959788;28;20050;-79
2023/12/22 02:06:08;;;;;;;5.43;2.38;;;10.90;99.90;;;8.80;100.00;99340.31;5003434;28;20066;-79
2023/12/22 02:08:36;;;;;;;7.93;2.25;;;9.90;99.90;;;8.76;100.00;99303.78;4974450;28;20042;-80
2023/12/22 02:11:03;;;;;;;8.07;2.08;;;9.90;99.90;;;8.79;100.00;99329.91;4980935;28;20044;-80
2023/12/22 02:13:31;;;;;;;6.15;2.03;;;9.90;99.90;;;8.72;100.00;99323.13;4977316;28;20049;-79
2023/12/22 02:16:12;;;;;;;5.88;2.20;;;9.90;99.90;;;8.70;100.00;99310.06;4971391;28;20038;-79
2023/12/22 02:18:47;;;;;;;11.43;2.33;;;9.90;99.90;;;8.80;100.00;99310.63;4972315;28;20140;-79
2023/12/22 02:21:14;;;;;;;7.05;1.80;;;9.90;62.30;;;8.68;100.00;99304.03;4989935;28;20141;-79
2023/12/22 02:23:41;;;;;;;7.18;2.22;;;9.90;74.60;;;8.68;100.00;99316.28;4974625;28;20046;-79
2023/12/22 02:26:36;;;;;;;5.45;1.98;;;9.90;99.90;;;8.67;100.00;99299.69;4965128;28;20518;-79
2023/12/22 02:29:05;;;;;;;9.25;1.98;;;9.90;20.10;;;8.84;100.00;99317.47;4972121;28;20076;-79
2023/12/22 02:31:44;;;;;;;9.70;2.30;;;10.00;26.30;;;8.70;100.00;99280.34;4976457;28;20727;-79
2023/12/22 02:34:19;;;;;;;5.78;2.45;;;11.30;1.00;;;8.84;100.00;99299.13;4976171;28;20074;-79
2023/12/22 02:36:48;;;;;;;7.72;3.83;;;9.90;9.00;;;8.88;100.00;99299.88;4976055;28;20037;-80
2023/12/22 02:39:18;;;;;;;10.15;3.88;;;10.00;26.30;;;8.84;100.00;99298.28;4977333;28;20394;-79
2023/12/22 02:41:46;;;;;;;8.73;2.60;;;10.00;20.40;;;8.94;100.00;99300.53;4993155;28;20037;-79
2023/12/22 02:44:13;;;;;;;4.80;2.38;;;10.00;45.80;;;8.62;100.00;99278.00;4960275;28;20052;-79
2023/12/22 02:46:41;;;;;;;8.10;2.67;;;10.50;99.90;;;8.85;100.00;99315.72;4972625;28;20698;-80
2023/12/22 02:49:08;;;;;;;5.55;2.30;;;9.90;99.90;;;8.59;100.00;99284.22;4972623;28;20046;-79
2023/12/22 02:51:36;;;;;;;6.68;2.03;;;9.90;99.90;;;8.79;100.00;99350.88;4960289;28;20060;-78
2023/12/22 02:54:03;;;;;;;5.47;2.05;;;9.90;99.90;;;8.89;100.00;99346.19;4991339;28;20048;-78
2023/12/22 02:56:30;;;;;;;6.55;1.95;;;10.80;68.30;;;8.80;100.00;99342.09;4975357;28;20054;-79
2023/12/22 02:58:57;;;;;;;4.90;1.95;;;10.00;90.00;;;8.78;100.00;99336.06;4972330;28;20137;-79
2023/12/22 03:01:24;;;;;;;5.50;1.95;;;11.40;99.90;;;8.84;100.00;99363.84;4959734;28;20061;-79
2023/12/22 03:03:51;;;;;;;5.80;2.13;;;9.90;44.00;;;8.88;100.00;99344.47;4977641;28;20547;-79
2023/12/22 03:06:18;;;;;;;8.13;2.72;;;10.00;66.60;;;8.94;100.00;99360.00;4956647;28;20035;-79
2023/12/22 03:08:45;;;;;;;5.68;2.35;;;10.00;56.50;;;8.82;100.00;99327.16;4967568;28;20038;-79
2023/12/22 03:11:12;;;;;;;6.13;2.40;;;10.00;62.00;;;8.98;100.00;99355.50;4959935;28;20042;-80
2023/12/22 03:13:39;;;;;;;8.57;3.03;;;10.00;16.20;;;9.04;100.00;99357.91;4967338;28;20135;-79
2023/12/22 03:16:10;;;;;;;7.97;2.00;;;10.10;3.60;;;8.84;100.00;99348.09;4974687;28;20052;-79
2023/12/22 03:18:40;;;;;;;7.28;2.30;;;10.00;48.70;;;8.71;100.00;99322.28;4975317;28;20567;-79
2023/12/22 03:21:07;;;;;;;13.32;2.92;;;10.00;61.20;;;8.81;100.00;99362.19;5008254;28;20547;-79
2023/12/22 03:23:34;;;;;;;6.32;2.10;;;10.00;93.40;;;8.90;100.00;99366.25;4973439;28;20037;-78
2023/12/22 03:26:04;;;;;;;7.30;2.38;;;10.00;79.80;;;9.00;100.00;99367.66;4971943;28;20117;-79
2023/12/22 03:28:33;;;;;;;8.88;2.42;;;10.10;12.30;;;8.94;100.00;99352.13;4973032;28;20060;-79
2023/12/22 03:31:00;;;;;;;5.60;2.30;;;10.00;36.70;;;8.86;100.00;99344.50;4969833;28;20141;-79
2023/12/22 03:33:27;;;;;;;7.72;2.22;;;10.10;41.70;;;8.90;100.00;99348.75;4991335;28;20052;-79
2023/12/22 03:35:54;;;;;;;8.25;2.13;;;10.60;23.30;;;8.89;100.00;99349.66;4974283;28;20088;-78
2023/12/22 03:38:23;;;;;;;8.93;3.00;;;10.10;1.00;;;8.98;100.00;99374.75;4974657;28;20050;-79
2023/12/22 03:40:49;;;;;;;8.18;2.80;;;10.10;1.00;;;8.91;100.00;99347.84;4958286;28;20077;-78
2023/12/22 03:43:17;;;;;;;8.43;2.00;;;10.10;73.40;;;8.87;100.00;99348.84;4972615;28;20050;-78
2023/12/22 03:45:43;;;;;;;5.63;2.20;;;10.10;99.90;;;8.93;100.00;99395.88;4987766;28;20046;-77
2023/12/22 03:48:10;;;;;;;6.95;2.25;;;10.00;99.90;;;8.83;100.00;99375.25;4966588;28;20055;-78
2023/12/22 03:50:38;;;;;;;4.75;2.00;;;10.10;1.00;;;8.86;100.00;99368.13;4990813;28;20134;-79
2023/12/22 03:53:04;;;;;;;5.57;2.28;;;10.00;1.00;;;8.86;100.00;99383.00;4956069;28;20049;-78
2023/12/22 03:55:31;;;;;;;4.25;1.40;;;9.90;99.90;;;8.59;100.00;99391.72;5004809;28;20052;-79
2023/12/22 03:57:59;;;;;;;3.08;1.77;;;9.80;1.00;;;8.57;100.00;99388.25;4990992;28;20049;-79
2023/12/22 04:00:25;;;;;;;7.40;1.98;;;9.60;99.90;;;8.48;100.00;99414.75;4974405;28;20064;-79
2023/12/22 04:02:52;;;;;;;4.72;1.40;;;9.80;1.00;;;8.29;100.00;99393.47;4991061;28;20412;-78
2023/12/22 04:05:23;;;;;;;3.83;1.58;;;9.80;99.90;;;8.25;100.00;99391.88;4974619;28;20555;-78
2023/12/22 04:07:50;;;;;;;3.13;1.40;;;9.50;8.00;;;8.27;100.00;99390.88;4990768;28;20050;-79
2023/12/22 04:10:20;;;;;;;7.60;2.85;;;9.40;99.90;;;8.29;100.00;99383.00;4990584;28;20046;-79
2023/12/22 04:12:47;;;;;;;3.80;2.20;;;9.40;1.00;;;8.26;100.00;99381.31;4974648;28;20076;-79
2023/12/22 04:15:14;;;;;;;9.43;3.05;;;9.30;1.00;;;8.05;100.00;99377.59;4970132;28;20100;-79
2023/12/22 04:17:41;;;;;;;11.50;3.63;;;9.30;1.00;;;8.09;100.00;99382.69;4990809;28;20492;-79
2023/12/22 04:20:08;;;;;;;8.77;3.30;;;9.90;1.00;;;8.22;100.00;99396.28;4974053;28;20050;-79
2023/12/22 04:22:35;;;;;;;6.75;3.00;;;9.30;1.00;;;8.20;100.00;99387.63;4974185;28;20077;-79
2023/12/22 04:25:02;;;;;;;8.18;3.80;;;9.20;99.90;;;8.14;100.00;99381.72;4972003;28;20096;-79
2023/12/22 04:27:29;;;;;;;5.28;2.60;;;9.30;1.00;;;8.26;100.00;99383.94;4978435;28;20056;-79
2023/12/22 04:29:56;;;;;;;8.77;3.22;;;9.30;57.70;;;8.30;100.00;99375.09;4989037;28;20074;-78
2023/12/22 04:32:23;;;;;;;3.08;2.35;;;9.40;94.20;;;7.79;100.00;99293.63;4968207;28;20061;-78
2023/12/22 04:34:50;;;;;;;4.07;1.95;;;9.40;80.20;;;8.30;100.00;99413.53;4994017;28;20124;-79
2023/12/22 04:37:18;;;;;;;6.30;2.30;;;9.40;47.40;;;8.25;100.00;99374.38;4985779;28;20042;-79
2023/12/22 04:39:45;;;;;;;6.72;1.95;;;9.50;16.30;;;8.31;100.00;99373.31;4977942;28;20065;-78
2023/12/22 04:42:12;;;;;;;7.28;2.63;;;9.50;1.00;;;8.21;100.00;99357.91;4970148;28;20082;-79
2023/12/22 04:44:39;;;;;;;6.78;2.30;;;10.30;99.90;;;8.37;100.00;99362.66;4976907;28;20137;-78
2023/12/22 04:47:06;;;;;;;5.00;2.13;;;9.60;26.10;;;8.50;100.00;99419.06;4993414;28;20064;-78
2023/12/22 04:49:33;;;;;;;4.72;2.20;;;9.50;1.00;;;7.98;100.00;99352.47;4977703;28;20133;-79
2023/12/22 04:52:00;;;;;;;5.80;2.10;;;9.60;99.90;;;8.41;100.00;99413.22;4978174;28;20038;-79
2023/12/22 04:54:28;;;;;;;7.85;2.63;;;9.60;92.50;;;8.38;100.00;99394.06;4977231;28;20683;-79
2023/12/22 04:56:55;;;;;;;6.30;2.28;;;9.60;1.00;;;8.47;100.00;99413.88;4961326;28;20052;-78
2023/12/22 04:59:22;;;;;;;8.10;2.80;;;10.00;1.00;;;8.43;100.00;99420.13;4969744;28;20558;-79
2023/12/22 05:01:49;;;;;;;3.53;2.10;;;9.60;1.00;;;8.30;100.00;99376.84;4976933;28;20046;-78
2023/12/22 05:04:17;;;;;;;5.68;2.25;;;10.10;1.00;;;8.44;100.00;99384.31;4992866;28;20049;-78
2023/12/22 05:06:45;;;;;;;6.93;2.08;;;9.60;1.00;;;8.44;100.00;99394.78;4968853;28;20489;-79
2023/12/22 05:09:12;;;;;;;6.22;2.55;;;9.60;99.90;;;8.37;100.00;99366.13;4969046;28;20794;-78
2023/12/22 05:11:39;;;;;;;4.32;1.90;;;9.60;99.90;;;8.54;100.00;99396.22;4993318;28;20048;-78
2023/12/22 05:14:06;;;;;;;6.95;2.25;;;9.70;99.90;;;8.55;100.00;99412.84;4960924;28;20046;-78
2023/12/22 05:16:34;;;;;;;7.65;2.95;;;10.10;99.90;;;8.55;100.00;99415.47;4984790;28;20060;-79
2023/12/22 05:19:01;;;;;;;6.57;2.67;;;10.90;1.00;;;8.61;100.00;99431.00;4963336;28;20050;-80
2023/12/22 05:21:31;;;;;;;10.43;3.78;;;9.80;1.00;;;8.48;100.00;99376.28;4977835;28;20042;-79
2023/12/22 05:23:58;;;;;;;;;;;9.80;1.00;;;8.76;100.00;99427.03;4961737;28;20049;-79
2023/12/22 05:26:29;;;;;;;6.53;2.20;;;10.50;99.90;;;8.51;100.00;99415.56;4959640;28;20023;-78
2023/12/22 05:28:57;;;;;;;6.60;2.90;;;9.70;1.00;;;8.31;100.00;99402.16;5010318;28;20077;-78
2023/12/22 05:31:25;;;;;;;6.55;2.33;;;9.70;1.00;;;8.67;100.00;99441.31;4976415;28;20104;-79
2023/12/22 05:33:52;;;;;;;9.90;3.30;;;10.40;99.90;;;8.67;100.00;99461.41;4984703;28;20563;-79
2023/12/22 05:36:19;;;;;;;8.43;3.10;;;9.70;99.90;;;8.32;100.00;99417.84;4975495;28;20041;-79
2023/12/22 05:38:47;;;;;;;10.98;3.15;;;9.70;5.60;;;7.89;100.00;99354.47;4992775;28;20042;-79
2023/12/22 05:41:14;;;;;;;9.52;3.25;;;9.70;99.90;;;8.56;100.00;99454.72;4992878;28;20038;-79
2023/12/22 05:43:42;;;;;;;10.20;2.47;;;9.80;1.00;;;8.30;100.00;99419.66;4992287;28;20100;-79
2023/12/22 05:46:09;;;;;;;10.48;3.40;;;9.70;99.90;;;8.60;100.00;99439.75;4975480;28;20140;-79
2023/12/22 05:48:36;;;;;;;11.90;2.78;;;9.80;99.90;;;8.65;100.00;99454.44;4976454;28;20056;-78
2023/12/22 05:51:07;;;;;;;10.75;2.75;;;9.90;99.90;;;8.78;100.00;99469.81;4992417;28;20092;-79
2023/12/22 05:53:34;;;;;;;;;;;9.80;1.00;;;8.28;100.00;99389.16;4992841;28;20049;-79
2023/12/22 05:56:01;;;;;;;10.27;2.20;;;9.90;1.00;;;8.94;100.00;99475.44;4975500;28;19933;-79
2023/12/22 05:58:28;;;;;;;8.50;2.75;;;10.00;99.90;;;8.80;100.00;99447.84;4976713;28;20050;-79
2023/12/22 06:00:55;;;;;;;11.00;3.03;;;10.00;99.90;;;8.87;100.00;99452.94;4976722;28;20046;-79
2023/12/22 06:03:22;;;;;;;7.55;2.45;;;10.80;99.90;;;8.91;100.00;99463.28;4960412;28;20409;-79
2023/12/22 06:05:49;;;;;;;11.00;2.88;;;10.40;99.90;;;8.97;100.00;99474.47;4991666;28;20136;-80
2023/12/22 06:08:17;;;;;;;9.45;2.80;;;10.80;1.00;;;8.88;100.00;99450.25;4968677;28;20051;-79
2023/12/22 06:10:46;;;;;;;15.27;3.80;;;10.00;99.90;;;8.78;100.00;99439.19;4993020;28;20042;-80
2023/12/22 06:13:14;;;;;;;6.60;2.60;;;10.00;1.00;;;8.63;100.00;99423.94;4960633;28;20783;-80
2023/12/22 06:15:41;;;;;;;13.75;3.38;;;10.20;1.00;;;8.90;100.00;99466.81;4975700;28;20136;-79
2023/12/22 06:18:08;;;;;;;10.35;3.28;;;10.40;99.90;;;8.51;100.00;99406.81;4992930;28;20042;-80
2023/12/22 06:20:35;;;;;;;12.57;2.97;;;10.00;99.90;;;8.90;100.00;99466.81;4976316;28;21570;-80
2023/12/22 06:23:04;;;;;;;13.48;3.00;;;10.00;99.90;;;8.91;100.00;99517.50;4976486;28;20038;-80
2023/12/22 06:25:31;;;;;;;10.32;2.95;;;10.10;99.90;;;8.84;100.00;99492.38;4990662;28;20065;-80
2023/12/22 06:27:58;;;;;;;13.70;3.58;;;10.80;99.90;;;8.84;100.00;99493.22;4956834;28;20038;-79
2023/12/22 06:30:26;;;;;;;13.38;3.33;;;10.50;99.90;;;8.90;100.00;99498.28;4973665;28;20149;-79
2023/12/22 06:32:53;;;;;;;11.02;3.10;;;10.10;99.90;;;8.45;100.00;99441.06;4968664;28;20041;-81
2023/12/22 06:35:23;;;;;;;7.45;2.70;;;10.10;99.90;;;8.95;100.00;99516.50;4947259;28;20081;-78
2023/12/22 06:37:55;;;;;;;9.38;3.30;;;10.60;99.90;;;9.01;100.00;99529.44;4958722;28;20145;-79
2023/12/22 06:40:22;;;;;;;8.02;3.00;;;9.60;99.90;;;8.83;100.00;99507.25;4964399;28;20489;-79
2023/12/22 06:42:49;;;;;;;9.68;2.97;;;11.30;29.60;;;8.94;100.00;99512.16;4971577;28;20046;-79
2023/12/22 06:45:16;;;;;;;9.20;2.85;;;10.10;1.00;;;8.89;100.00;99493.09;4975424;28;20052;-80
2023/12/22 06:47:46;;;;;;;5.93;2.10;;;10.10;1.00;;;9.01;100.00;99516.31;4988407;28;20092;-79
2023/12/22 06:50:22;;;;;;;7.15;3.00;;;10.10;1.00;;;9.01;100.00;99542.56;4987793;28;20053;-80
2023/12/22 06:52:51;;;;;;;6.57;3.17;;;10.10;1.00;;;8.74;100.00;99503.13;4968718;28;20045;-79
2023/12/22 06:55:18;;;;;;;9.48;3.05;;;10.00;1.00;;;8.96;100.00;99536.56;4959450;28;20038;-79
2023/12/22 06:57:45;;;;;;;9.93;2.85;;;10.10;99.90;;;8.88;100.00;99530.72;4975851;28;20053;-79
2023/12/22 07:00:16;;;;;;;9.30;3.15;;;10.00;1.00;;;8.88;100.00;99547.31;4992874;28;20030;-80
2023/12/22 07:02:44;;;;;;;11.82;3.45;;;10.00;1.00;;;8.90;100.00;99555.13;4965224;28;20042;-79
2023/12/22 07:05:23;;;;;;;13.75;3.97;;;10.00;1.00;;;8.96;100.00;99570.69;4971083;28;20057;-79
2023/12/22 07:07:50;;;;;;;9.40;4.20;;;10.00;1.00;;;8.72;100.00;99522.44;4968876;28;20081;-79
2023/12/22 07:10:21;;;;;;;8.77;3.40;;;10.00;1.00;;;8.85;100.00;99550.03;4975700;28;20608;-80
2023/12/22 07:12:48;;;;;;;8.98;3.85;;;10.30;1.00;;;8.76;100.00;99524.09;4975593;28;20050;-79
2023/12/22 07:15:18;;;;;;;11.90;3.08;;;10.00;99.90;;;8.96;100.00;99561.97;4974919;28;20050;-80
2023/12/22 07:17:48;;;;;;;10.00;3.70;;;10.10;99.90;;;8.67;100.00;99521.72;4983916;28;20065;-79
2023/12/22 07:20:15;;;;;;;7.07;3.10;;;10.00;99.90;;;8.83;100.00;99553.63;4975093;28;20053;-80
2023/12/22 07:22:45;;;;;;;9.00;3.22;;;9.90;1.00;;;8.84;100.00;99585.03;4967284;28;20038;-80
2023/12/22 07:25:13;;;;;;;6.78;2.67;;;9.90;99.90;;;8.87;100.00;99582.31;4975024;28;20576;-80
2023/12/22 07:27:41;;;;;;;9.15;3.10;;;9.90;1.00;;;8.61;100.00;99539.38;4985266;28;20247;-80
2023/12/22 07:30:11;;;;;;;5.13;2.80;;;9.90;7.00;;;8.74;100.00;99559.97;4990570;28;20119;-80
2023/12/22 07:32:38;;;;;;;7.70;3.00;;;9.90;1.30;;;8.80;100.00;99559.81;4974737;28;20046;-80
2023/12/22 07:35:07;;;;;;;10.35;3.03;;;11.20;6.50;;;8.71;100.00;99566.19;4989447;28;20068;-79
2023/12/22 07:37:36;;;;;;;11.90;3.47;;;9.90;99.90;;;8.46;100.00;99539.78;4969262;28;20128;-79
2023/12/22 07:40:05;;;;;;;11.27;3.95;;;9.80;1.00;;;8.65;100.00;99569.84;4974225;28;20045;-79
2023/12/22 07:42:32;;;;;;;7.80;2.75;;;9.80;81.00;;;8.67;100.00;99601.28;4990101;28;20046;-79
2023/12/22 07:45:04;;;;;;;9.45;3.78;;;10.10;99.90;;;8.47;100.00;99568.56;4974228;28;20080;-79
2023/12/22 07:47:33;;;;;;;16.27;4.38;;;9.80;99.90;;;8.57;100.00;99602.44;4956703;28;20512;-79
2023/12/22 07:50:00;;;;;;;9.83;4.13;;;9.70;99.90;;;8.48;100.00;99590.41;4974403;28;20045;-80
2023/12/22 07:52:30;;;;;;;8.82;4.25;;;9.70;99.90;;;8.45;100.00;99616.72;4990333;28;20045;-80
2023/12/22 07:54:57;;;;;;;11.68;3.40;;;9.60;1.00;;;8.22;100.00;99616.44;4957634;28;20108;-80
2023/12/22 07:57:26;;;;;;;12.98;5.30;;;10.70;61.30;;;8.35;100.00;99600.34;4989858;28;20127;-80
2023/12/22 07:59:53;;;;;;;11.55;5.82;;;9.90;72.80;;;8.56;100.00;99625.16;4975154;28;20113;-81
2023/12/22 08:02:24;;;;;;;13.55;6.95;;;9.60;72.60;;;8.12;100.00;99543.31;4991322;28;20121;-77
2023/12/22 08:04:54;;;;;;;14.68;6.72;;;9.60;99.90;;;8.42;100.00;99609.78;4976145;28;20132;-77
2023/12/22 08:07:21;;;;;;;;;;;9.60;99.90;;;8.38;100.00;99606.38;4974195;28;20730;-78
2023/12/22 08:09:48;;;;;;;11.30;5.88;;;9.50;99.90;;;8.48;100.00;99609.59;4961187;28;20016;-78
2023/12/22 08:12:15;;;;;;;11.98;6.57;;;9.60;99.90;;;8.41;100.00;99602.81;4993393;28;20054;-78
2023/12/22 08:14:42;;;;;;;10.85;5.70;;;10.40;99.90;;;8.42;100.00;99612.41;4994273;28;20056;-78
2023/12/22 08:17:09;;;;;;;12.55;6.55;;;9.50;99.90;;;8.33;100.00;99607.41;4995243;28;20073;-78
2023/12/22 08:19:37;;;;;;;17.23;6.50;;;9.50;1.00;;;8.16;100.00;99592.97;4996161;28;20143;-78
2023/12/22 08:22:05;;;;;;;13.82;6.22;;;9.50;1.00;;;8.37;100.00;99620.38;4995549;28;20040;-78
2023/12/22 08:24:34;;;;;;;16.00;5.87;;;9.50;1.00;;;8.33;100.00;99596.91;4977624;28;20085;-78
2023/12/22 08:27:08;;;;;;;15.07;5.85;;;9.50;1.00;;;8.26;100.00;99582.28;4957176;28;20047;-79
2023/12/22 08:29:38;;;;;;;21.55;8.18;;;10.10;1.00;;;8.15;100.00;99572.94;4984703;28;20057;-78
2023/12/22 08:32:05;;;;;;;10.52;4.25;;;9.40;1.00;;;8.33;100.00;99608.28;4958948;28;20054;-79
2023/12/22 08:34:32;;;;;;;18.08;6.60;;;9.40;1.00;;;8.21;100.00;99583.25;4974634;28;20050;-79
2023/12/22 08:37:00;;;;;;;15.55;5.60;;;9.40;1.00;;;8.33;100.00;99597.78;4974274;28;20042;-81
2023/12/22 08:39:27;;;;;;;16.08;4.50;;;9.50;1.00;;;8.29;100.00;99597.91;4964635;28;20049;-80
2023/12/22 08:41:55;;;;;;;8.70;3.13;;;9.50;1.00;;;8.30;100.00;99599.63;4957208;28;20038;-79
2023/12/22 08:44:22;;;;;;;10.32;3.30;;;9.50;1.00;;;8.29;100.00;99611.88;4975768;28;20616;-79
2023/12/22 08:46:49;;;;;;;10.50;3.28;;;10.20;1.00;;;8.30;100.00;99607.50;4974941;28;20073;-80
2023/12/22 08:49:17;;;;;;;9.75;4.28;;;9.60;1.00;;;7.83;100.00;99534.50;4974760;28;20053;-79
2023/12/22 08:51:44;;;;;;;13.73;4.50;;;9.60;1.00;;;8.38;100.00;99643.06;4982692;28;20038;-79
2023/12/22 08:54:11;;;;;;;13.07;5.05;;;9.50;1.00;;;8.32;100.00;99624.03;4982078;28;20046;-79
2023/12/22 08:56:38;;;;;;;15.77;5.18;;;9.50;1.00;;;8.38;100.00;99613.41;4980313;28;20045;-80
2023/12/22 08:59:08;;;;;;;12.27;5.00;;;9.50;1.00;;;8.38;100.00;99624.72;4980673;28;20129;-81
2023/12/22 09:01:36;;;;;;;10.98;5.38;;;10.50;1.00;;;8.40;100.00;99623.81;4962735;28;20057;-78
2023/12/22 09:04:03;;;;;;;16.38;5.95;;;9.50;1.00;;;8.32;100.00;99613.53;4989234;28;20046;-79
2023/12/22 09:06:31;;;;;;;18.05;5.65;;;9.60;99.90;;;7.73;100.00;99502.47;4975567;28;20536;-79
2023/12/22 09:08:58;;;;;;;14.23;6.18;;;10.00;99.90;;;7.98;100.00;99551.56;4964299;28;20053;-77
2023/12/22 09:11:26;;;;;;;14.18;5.75;;;9.60;99.90;;;8.47;100.00;99594.78;4974435;28;20416;-79
2023/12/22 09:13:55;;;;;;;20.33;6.43;;;11.10;99.90;;;8.09;100.00;99532.03;4978303;28;20062;-80
2023/12/22 09:16:25;;;;;;;16.02;6.70;;;9.50;4.50;;;8.13;100.00;99532.81;4978867;28;20080;-80
2023/12/22 09:18:52;;;;;;;18.53;6.70;;;9.80;1.00;;;8.26;100.00;99532.47;4994415;28;20188;-79
2023/12/22 09:21:23;;;;;;;18.02;5.78;;;10.80;1.00;;;8.10;100.00;99532.91;4988603;28;20324;-79
2023/12/22 09:23:53;;;;;;;18.55;5.75;;;10.70;99.90;;;8.71;100.00;99602.03;4983172;28;20137;-80
2023/12/22 09:26:20;;;;;;;21.02;6.18;;;9.80;99.90;;;8.68;100.00;99604.75;4965854;28;20045;-79
2023/12/22 09:28:52;;;;;;;14.20;4.47;;;9.80;99.90;;;8.79;100.00;99618.41;4978642;28;20053;-79
2023/12/22 09:31:20;;;;;;;16.88;5.15;;;9.90;1.00;;;8.27;100.00;99555.16;4975809;28;20041;-79
2023/12/22 09:33:47;;;;;;;17.70;4.55;;;9.80;1.00;;;8.86;100.00;99622.56;4974968;28;20050;-79
2023/12/22 09:36:14;;;;;;;19.65;4.88;;;9.90;99.90;;;8.80;100.00;99615.72;4990343;28;20101;-80
2023/12/22 09:38:41;;;;;;;15.68;4.70;;;10.00;99.90;;;8.58;100.00;99602.38;4959528;28;20520;-80
2023/12/22 09:41:10;;;;;;;20.08;6.22;;;9.90;1.00;;;8.90;100.00;99637.34;4975750;28;20033;-79
2023/12/22 09:43:38;;;;;;;23.65;7.40;;;9.90;99.90;;;8.88;100.00;99626.00;4986384;28;20050;-79
2023/12/22 09:46:07;;;;;;;20.40;6.78;;;10.00;99.90;;;8.83;100.00;99601.69;4979519;28;20062;-79
2023/12/22 09:48:39;;;;;;;22.98;5.90;;;10.10;99.90;;;8.91;100.00;99614.56;4962500;28;20064;-79
2023/12/22 09:51:08;;;;;;;18.73;5.88;;;10.00;12.60;;;8.99;100.00;99609.97;4993254;28;20045;-79
2023/12/22 09:53:38;;;;;;;18.95;4.80;;;10.20;1.00;;;8.96;100.00;99610.03;4978544;28;20187;-79
2023/12/22 09:56:06;;;;;;;19.83;5.40;;;10.10;1.00;;;8.86;100.00;99600.75;4974707;28;20500;-79
2023/12/22 09:58:35;;;;;;;20.83;6.85;;;10.00;1.00;;;8.87;100.00;99597.22;4979856;28;20042;-79
2023/12/22 10:01:08;;;;;;;24.60;6.53;;;10.00;1.00;;;8.97;100.00;99595.16;4980663;28;20440;-79
2023/12/22 10:03:37;;;;;;;22.17;8.32;;;10.10;1.00;;;8.84;100.00;99564.03;4978285;28;20232;-78
2023/12/22 10:06:05;;;;;;;22.52;6.57;;;10.00;1.00;;;9.01;100.00;99600.28;4977486;28;20073;-80
2023/12/22 10:08:33;;;;;;;27.95;8.35;;;10.10;99.90;;;8.94;100.00;99576.00;4977642;28;20194;-79
2023/12/22 10:11:02;;;;;;;32.50;9.18;;;10.20;7.10;;;9.01;100.00;99583.66;4961255;28;20074;-79
2023/12/22 10:13:29;;;;;;;26.10;9.48;;;10.10;68.10;;;9.00;100.00;99577.59;4977004;28;20136;-81
2023/12/22 10:15:57;;;;;;;19.70;6.28;;;10.10;1.00;;;8.72;100.00;99525.94;4992582;28;20128;-79
2023/12/22 10:18:25;;;;;;;28.42;5.55;;;10.20;1.00;;;8.84;100.00;99529.94;4989899;28;21343;-79
2023/12/22 10:20:52;;;;;;;16.15;5.80;;;10.20;1.00;;;9.06;100.00;99568.66;4974417;28;20049;-79
2023/12/22 10:23:19;;;;;;;18.48;4.95;;;10.20;1.00;;;8.81;100.00;99527.41;4976249;28;20053;-79
2023/12/22 10:25:49;;;;;;;16.05;4.03;;;10.20;1.00;;;8.99;100.00;99533.88;4982811;28;20116;-78
2023/12/22 10:28:17;;;;;;;18.17;5.55;;;10.80;1.00;;;8.93;100.00;99541.91;4991494;28;20449;-79